Time;durP1;ratioP1;P1;durP2;ratioP2;P2;SDS_P1;SDS_P2;PMS_P1;PMS_P2;Temp;Humidity;BMP_temperature;BMP_pressure;BME280_temperature;BME280_humidity;BME280_pressure;Samples;Min_cycle;Max_cycle;Signal;HPM_P1;HPM_P2
2022/08/25 00:00:16;;;;;;;5.47;3.60;;;21.40;99.90;;;;;;4865197;29;20243;-56
2022/08/25 00:02:44;;;;;;;5.23;3.40;;;21.40;99.90;;;;;;4865846;29;20238;-56
2022/08/25 00:05:26;;;;;;;5.10;3.30;;;21.40;99.90;;;;;;4863817;29;20232;-56
2022/08/25 00:07:56;;;;;;;7.77;3.77;;;21.30;99.90;;;;;;4864209;29;20241;-56
2022/08/25 00:10:25;;;;;;;6.17;3.90;;;21.40;99.90;;;;;;4865567;29;20719;-55
2022/08/25 00:12:54;;;;;;;5.70;3.77;;;21.30;99.90;;;;;;4865171;29;20245;-55
2022/08/25 00:15:22;;;;;;;6.87;3.93;;;21.30;99.90;;;;;;4864306;29;20598;-56
2022/08/25 00:17:51;;;;;;;5.53;3.70;;;21.30;99.90;;;;;;4863695;29;20248;-55
2022/08/25 00:20:19;;;;;;;4.77;3.57;;;21.30;99.90;;;;;;4864909;29;21088;-57
2022/08/25 00:22:48;;;;;;;8.27;4.20;;;21.30;99.90;;;;;;4864003;29;21301;-56
2022/08/25 00:25:16;;;;;;;7.07;3.83;;;21.30;99.90;;;;;;4864944;29;20234;-57
2022/08/25 00:27:46;;;;;;;8.47;4.10;;;21.20;99.90;;;;;;4860080;29;20244;-57
2022/08/25 00:30:16;;;;;;;3.83;3.33;;;21.20;99.90;;;;;;4864308;29;20248;-56
2022/08/25 00:32:45;;;;;;;5.03;3.70;;;21.20;99.90;;;;;;4864183;29;20304;-55
2022/08/25 00:35:24;;;;;;;6.77;3.80;;;21.20;99.90;;;;;;4864599;29;20689;-56
2022/08/25 00:37:52;;;;;;;6.33;4.27;;;21.30;99.90;;;;;;4862449;29;20251;-54
2022/08/25 00:40:21;;;;;;;6.17;4.13;;;21.20;99.90;;;;;;4864976;29;20233;-55
2022/08/25 00:42:49;;;;;;;6.10;4.20;;;21.20;99.90;;;;;;4863566;29;20242;-56
2022/08/25 00:45:19;;;;;;;6.10;4.00;;;21.20;99.90;;;;;;4864061;29;20356;-56
2022/08/25 00:47:47;;;;;;;5.53;4.13;;;21.10;99.90;;;;;;4864411;29;20811;-56
2022/08/25 00:50:17;;;;;;;7.43;4.03;;;21.10;99.90;;;;;;4864860;29;20697;-57
2022/08/25 00:52:49;;;;;;;5.13;3.93;;;21.10;99.90;;;;;;4864431;29;20253;-54
2022/08/25 00:55:25;;;;;;;6.63;4.47;;;21.10;99.90;;;;;;4865894;29;20236;-56
2022/08/25 00:57:57;;;;;;;4.80;3.63;;;21.10;99.90;;;;;;4863300;29;20267;-54
2022/08/25 01:00:30;;;;;;;7.40;4.10;;;21.10;99.90;;;;;;4862477;29;20275;-55
2022/08/25 01:02:59;;;;;;;6.33;4.13;;;21.10;99.90;;;;;;4864604;29;20256;-56
2022/08/25 01:05:29;;;;;;;6.40;3.77;;;21.10;99.90;;;;;;4863906;29;20320;-56
2022/08/25 01:08:01;;;;;;;5.33;3.97;;;21.00;99.90;;;;;;4860808;29;20262;-56
2022/08/25 01:10:34;;;;;;;5.10;3.93;;;21.00;99.90;;;;;;4865248;29;20285;-56
2022/08/25 01:13:08;;;;;;;6.57;4.40;;;21.00;99.90;;;;;;4863632;29;20916;-54
2022/08/25 01:15:45;;;;;;;7.77;4.37;;;21.00;99.90;;;;;;4859504;29;20252;-57
2022/08/25 01:18:13;;;;;;;5.60;4.13;;;21.00;99.90;;;;;;4862683;29;20256;-56
2022/08/25 01:20:42;;;;;;;5.33;4.20;;;21.00;99.90;;;;;;4867575;29;20244;-56
2022/08/25 01:23:24;;;;;;;6.33;4.63;;;21.00;99.90;;;;;;4868677;29;20241;-55
2022/08/25 01:26:18;;;;;;;7.60;4.20;;;21.00;99.90;;;;;;4866181;29;20244;-56
2022/08/25 01:29:24;;;;;;;6.60;4.20;;;21.00;99.90;;;;;;4864832;29;20719;-55
2022/08/25 01:32:07;;;;;;;5.53;4.10;;;20.90;99.90;;;;;;4866581;29;20257;-57
2022/08/25 01:34:46;;;;;;;8.10;4.40;;;20.80;99.90;;;;;;4862611;29;20321;-56
2022/08/25 01:37:19;;;;;;;6.07;4.33;;;20.80;99.90;;;;;;4861516;29;20237;-57
2022/08/25 01:39:49;;;;;;;6.00;4.50;;;20.80;99.90;;;;;;4866411;29;20234;-57
2022/08/25 01:42:29;;;;;;;5.07;4.10;;;20.80;99.90;;;;;;4868148;29;20239;-56
2022/08/25 01:44:57;;;;;;;5.17;4.50;;;20.80;99.90;;;;;;4868746;29;20248;-56
2022/08/25 01:48:09;;;;;;;5.33;4.00;;;20.80;99.90;;;;;;4867305;29;20343;-56
2022/08/25 01:50:44;;;;;;;5.43;4.43;;;20.80;99.90;;;;;;4867027;29;20258;-56
2022/08/25 01:53:21;;;;;;;7.67;4.43;;;20.80;99.90;;;;;;4869062;29;20246;-56
2022/08/25 01:56:00;;;;;;;6.50;4.60;;;20.80;99.90;;;;;;4869370;29;20324;-57
2022/08/25 01:58:49;;;;;;;5.83;4.70;;;20.80;99.90;;;;;;4866891;29;20329;-56
2022/08/25 02:01:30;;;;;;;5.93;4.53;;;20.70;99.90;;;;;;4867866;29;20321;-55
2022/08/25 02:04:00;;;;;;;4.73;3.90;;;20.70;99.90;;;;;;4866839;29;20250;-56
2022/08/25 02:06:32;;;;;;;5.73;4.30;;;20.70;99.90;;;;;;4867917;29;20342;-56
2022/08/25 02:09:04;;;;;;;5.23;4.27;;;20.70;99.90;;;;;;4867306;29;20305;-55
2022/08/25 02:11:35;;;;;;;6.80;4.10;;;20.70;99.90;;;;;;4870495;29;20246;-56
2022/08/25 02:19:23;;;;;;;6.90;4.83;;;20.60;99.90;;;;;;4864492;29;20402;-56
2022/08/25 02:25:49;;;;;;;5.23;4.53;;;20.50;99.90;;;;;;4870458;29;20277;-55
2022/08/25 02:29:06;;;;;;;6.53;4.30;;;20.50;99.90;;;;;;4859693;29;20285;-56
2022/08/25 02:31:35;;;;;;;8.97;4.60;;;20.50;99.90;;;;;;4870625;29;20340;-56
2022/08/25 02:34:04;;;;;;;6.30;4.80;;;20.50;99.90;;;;;;4868453;29;20246;-56
2022/08/25 02:36:33;;;;;;;6.17;4.43;;;20.50;99.90;;;;;;4866047;29;20241;-56
2022/08/25 02:39:01;;;;;;;6.00;4.20;;;20.50;99.90;;;;;;4869426;29;20248;-56
2022/08/25 02:41:32;;;;;;;5.43;4.50;;;20.50;99.90;;;;;;4872813;29;20250;-56
2022/08/25 02:44:01;;;;;;;6.87;4.93;;;20.50;99.90;;;;;;4871561;29;20237;-54
2022/08/25 02:46:31;;;;;;;5.13;4.50;;;20.40;99.90;;;;;;4859521;29;20241;-56
2022/08/25 02:48:59;;;;;;;5.10;4.60;;;20.40;99.90;;;;;;4863784;29;20257;-56
2022/08/25 02:51:28;;;;;;;5.80;4.57;;;20.40;99.90;;;;;;4870840;29;20741;-56
2022/08/25 02:53:58;;;;;;;5.27;4.50;;;20.40;99.90;;;;;;4867269;29;20258;-56
2022/08/25 02:56:27;;;;;;;6.43;4.63;;;20.40;99.90;;;;;;4869031;29;20241;-56
2022/08/25 02:58:56;;;;;;;6.27;5.20;;;20.40;99.90;;;;;;4871259;29;20245;-56
2022/08/25 03:01:24;;;;;;;5.67;4.70;;;20.30;99.90;;;;;;4869616;29;20761;-55
2022/08/25 03:03:57;;;;;;;6.27;4.60;;;20.30;99.90;;;;;;4867118;29;21382;-57
2022/08/25 03:06:26;;;;;;;6.27;4.67;;;20.30;99.90;;;;;;4871344;29;20706;-56
2022/08/25 03:08:55;;;;;;;5.77;4.77;;;20.30;99.90;;;;;;4870298;29;20244;-56
2022/08/25 03:11:25;;;;;;;6.43;4.67;;;20.20;99.90;;;;;;4870883;29;21239;-56
2022/08/25 03:13:55;;;;;;;6.97;5.00;;;20.30;99.90;;;;;;4871542;29;21426;-55
2022/08/25 03:16:23;;;;;;;5.00;4.50;;;20.20;99.90;;;;;;4871752;29;20739;-54
2022/08/25 03:18:55;;;;;;;7.63;4.87;;;20.20;99.90;;;;;;4870464;29;21388;-56
2022/08/25 03:21:26;;;;;;;7.53;5.37;;;20.20;99.90;;;;;;4832885;29;1091741;-56
2022/08/25 03:23:55;;;;;;;6.37;5.17;;;20.20;99.90;;;;;;4869730;29;20245;-55
2022/08/25 03:29:09;;;;;;;5.07;4.57;;;20.10;99.90;;;;;;4869185;29;20237;-57
2022/08/25 03:31:37;;;;;;;8.27;5.03;;;20.10;99.90;;;;;;4868046;29;20238;-56
2022/08/25 03:34:06;;;;;;;6.53;4.53;;;20.10;99.90;;;;;;4866031;29;20244;-57
2022/08/25 03:36:35;;;;;;;5.60;4.97;;;20.10;99.90;;;;;;4868917;29;20241;-56
2022/08/25 03:39:04;;;;;;;6.57;5.43;;;20.10;99.90;;;;;;4866640;29;20275;-57
2022/08/25 03:41:32;;;;;;;5.40;4.90;;;20.10;99.90;;;;;;4867695;29;20735;-56
2022/08/25 03:44:02;;;;;;;7.40;4.87;;;20.10;99.90;;;;;;4868569;29;20241;-57
2022/08/25 03:46:33;;;;;;;6.23;5.63;;;20.10;99.90;;;;;;4867309;29;20749;-56
2022/08/25 03:49:03;;;;;;;6.70;5.60;;;20.10;99.90;;;;;;4869729;29;20239;-56
2022/08/25 03:51:33;;;;;;;6.27;5.50;;;20.00;99.90;;;;;;4870422;29;20232;-55
2022/08/25 03:54:04;;;;;;;6.77;5.30;;;20.00;99.90;;;;;;4870745;29;20244;-56
2022/08/25 03:56:32;;;;;;;6.20;4.70;;;19.90;99.90;;;;;;4867087;29;20313;-56
2022/08/25 03:59:00;;;;;;;6.53;5.93;;;19.80;99.90;;;;;;4867021;29;20241;-57
2022/08/25 04:01:29;;;;;;;8.10;5.43;;;19.80;99.90;;;;;;4869010;29;20244;-56
2022/08/25 04:03:57;;;;;;;6.80;5.77;;;19.90;99.90;;;;;;4869339;29;20927;-56
2022/08/25 04:06:25;;;;;;;6.43;5.23;;;19.90;99.90;;;;;;4868448;29;20245;-56
2022/08/25 04:08:53;;;;;;;5.93;5.30;;;19.80;99.90;;;;;;4867206;29;20255;-56
2022/08/25 04:11:23;;;;;;;7.07;5.40;;;19.80;99.90;;;;;;4865602;29;20242;-55
2022/08/25 04:13:52;;;;;;;7.37;5.17;;;19.90;99.90;;;;;;4868088;29;20253;-56
2022/08/25 04:16:23;;;;;;;7.53;5.80;;;19.90;99.90;;;;;;4866883;29;20419;-56
2022/08/25 04:18:52;;;;;;;10.37;6.00;;;19.80;99.90;;;;;;4867563;29;20257;-56
2022/08/25 04:21:22;;;;;;;6.07;5.47;;;19.80;99.90;;;;;;4869988;29;20255;-56
2022/08/25 04:23:51;;;;;;;8.07;5.83;;;19.80;99.90;;;;;;4867521;29;20238;-56
2022/08/25 04:26:23;;;;;;;7.27;5.37;;;19.80;99.90;;;;;;4870662;29;20248;-56
2022/08/25 04:28:51;;;;;;;9.13;5.70;;;19.80;99.90;;;;;;4867634;29;20240;-55
2022/08/25 04:31:21;;;;;;;7.90;6.13;;;19.80;99.90;;;;;;4866792;29;20259;-56
2022/08/25 04:33:50;;;;;;;6.30;5.70;;;19.80;99.90;;;;;;4868595;29;20240;-56
2022/08/25 04:36:21;;;;;;;6.80;6.00;;;19.70;99.90;;;;;;4865431;29;20236;-56
2022/08/25 04:38:50;;;;;;;6.93;6.30;;;19.70;99.90;;;;;;4866072;29;20247;-56
2022/08/25 04:41:21;;;;;;;6.47;5.73;;;19.70;99.90;;;;;;4870098;29;20245;-56
2022/08/25 04:43:51;;;;;;;6.23;5.63;;;19.80;99.90;;;;;;4870036;29;20699;-56
2022/08/25 04:46:21;;;;;;;8.03;5.40;;;19.80;99.90;;;;;;4866455;29;20305;-56
2022/08/25 04:48:51;;;;;;;8.30;6.30;;;19.70;99.90;;;;;;4866355;29;20360;-56
2022/08/25 04:51:22;;;;;;;9.43;6.53;;;19.70;99.90;;;;;;4866580;29;20238;-56
2022/08/25 04:53:50;;;;;;;7.50;6.03;;;19.70;99.90;;;;;;4869794;29;20329;-56
2022/08/25 04:56:21;;;;;;;9.30;6.37;;;19.60;99.90;;;;;;4872319;29;20242;-56
2022/08/25 04:58:51;;;;;;;7.53;5.90;;;19.60;99.90;;;;;;4869767;29;20236;-55
2022/08/25 05:01:22;;;;;;;7.50;5.83;;;19.70;99.90;;;;;;4872291;29;20240;-56
2022/08/25 05:03:55;;;;;;;9.13;6.97;;;19.80;99.90;;;;;;4872151;29;20727;-56
2022/08/25 05:06:24;;;;;;;7.77;6.27;;;19.80;99.90;;;;;;4872234;29;20246;-55
2022/08/25 05:08:52;;;;;;;7.03;6.33;;;19.80;99.90;;;;;;4872455;29;20657;-57
2022/08/25 05:11:20;;;;;;;7.73;6.13;;;19.80;99.90;;;;;;4869425;29;20241;-56
2022/08/25 05:13:54;;;;;;;7.40;6.20;;;19.90;99.90;;;;;;4870178;29;20240;-56
2022/08/25 05:16:23;;;;;;;7.77;6.27;;;19.90;99.90;;;;;;4872688;29;20250;-56
2022/08/25 05:18:53;;;;;;;6.40;5.57;;;20.00;99.90;;;;;;4870811;29;20750;-56
2022/08/25 05:21:23;;;;;;;6.23;5.57;;;20.00;99.90;;;;;;4856602;29;20265;-56
2022/08/25 05:23:55;;;;;;;7.10;6.10;;;20.00;99.90;;;;;;4851766;29;20243;-56
2022/08/25 05:26:26;;;;;;;7.53;5.77;;;20.00;99.90;;;;;;4851467;29;20243;-56
2022/08/25 05:28:55;;;;;;;7.87;5.73;;;20.10;99.90;;;;;;4850410;29;20242;-56
2022/08/25 05:31:24;;;;;;;7.87;5.80;;;20.10;99.90;;;;;;4850861;29;20249;-57
2022/08/25 05:33:54;;;;;;;7.83;6.17;;;20.20;99.90;;;;;;4850030;29;20257;-56
2022/08/25 05:36:23;;;;;;;9.27;6.10;;;20.30;99.90;;;;;;4851034;29;20238;-56
2022/08/25 05:38:51;;;;;;;7.47;5.50;;;20.40;99.90;;;;;;4849900;29;20344;-56
2022/08/25 05:41:22;;;;;;;6.27;5.33;;;20.50;99.90;;;;;;4851029;29;20730;-56
2022/08/25 05:43:50;;;;;;;7.20;5.83;;;20.60;99.90;;;;;;4850770;29;20589;-56
2022/08/25 05:46:21;;;;;;;6.47;5.77;;;20.70;99.90;;;;;;4850860;29;20227;-56
2022/08/25 05:48:50;;;;;;;9.20;6.00;;;20.80;99.90;;;;;;4849593;29;20238;-56
2022/08/25 05:51:18;;;;;;;10.97;5.90;;;20.90;99.90;;;;;;4850013;29;20234;-55
2022/08/25 05:53:48;;;;;;;7.47;5.60;;;21.00;99.90;;;;;;4849734;29;20271;-55
2022/08/25 05:56:17;;;;;;;5.20;4.70;;;21.10;99.90;;;;;;4850824;29;20238;-56
2022/08/25 05:58:45;;;;;;;6.60;4.93;;;21.20;99.90;;;;;;4849517;29;20243;-57
2022/08/25 06:04:11;;;;;;;6.07;5.47;;;21.50;99.90;;;;;;4849139;29;20715;-56
2022/08/25 06:06:40;;;;;;;9.53;5.77;;;21.50;99.90;;;;;;4851108;29;20664;-56
2022/08/25 06:09:09;;;;;;;6.80;5.67;;;21.70;99.90;;;;;;4849105;29;20231;-57
2022/08/25 06:11:39;;;;;;;7.03;5.77;;;21.80;99.90;;;;;;4850312;29;20242;-56
2022/08/25 06:14:07;;;;;;;7.17;5.27;;;21.70;99.90;;;;;;4850525;29;20333;-56
2022/08/25 06:16:37;;;;;;;10.63;6.53;;;21.80;99.90;;;;;;4850531;29;20763;-56
2022/08/25 06:19:07;;;;;;;7.17;5.80;;;21.90;99.90;;;;;;4849293;29;20234;-57
2022/08/25 06:21:37;;;;;;;8.87;5.80;;;22.00;99.90;;;;;;4866220;29;20821;-55
2022/08/25 06:24:06;;;;;;;10.60;5.77;;;22.10;99.90;;;;;;4869318;29;20236;-57
2022/08/25 06:26:39;;;;;;;6.77;5.27;;;22.30;99.90;;;;;;4867908;29;20236;-57
2022/08/25 06:29:07;;;;;;;9.40;6.20;;;22.40;99.90;;;;;;4867446;29;20247;-55
2022/08/25 06:31:35;;;;;;;6.57;4.80;;;22.50;99.90;;;;;;4867981;29;20241;-56
2022/08/25 06:34:05;;;;;;;7.97;5.57;;;22.70;99.90;;;;;;4869004;29;20273;-57
2022/08/25 06:36:33;;;;;;;7.03;5.37;;;22.80;99.90;;;;;;4869696;29;20248;-57
2022/08/25 06:39:01;;;;;;;6.70;5.50;;;22.90;99.90;;;;;;4868229;29;20912;-57
2022/08/25 06:41:30;;;;;;;6.70;4.97;;;23.00;99.90;;;;;;4869119;29;20235;-55
2022/08/25 06:44:04;;;;;;;6.17;5.50;;;23.20;99.90;;;;;;4868492;29;20706;-56
2022/08/25 06:46:33;;;;;;;9.00;5.40;;;23.20;99.90;;;;;;4867346;29;20705;-57
2022/08/25 06:49:06;;;;;;;6.63;5.07;;;23.30;99.90;;;;;;4867177;29;20281;-57
2022/08/25 06:51:35;;;;;;;7.33;5.00;;;23.40;99.90;;;;;;4867949;29;20240;-57
2022/08/25 06:54:04;;;;;;;7.57;4.53;;;23.70;99.90;;;;;;4868981;29;20327;-56
2022/08/25 06:56:33;;;;;;;7.90;5.50;;;23.80;99.90;;;;;;4868085;29;20241;-57
2022/08/25 06:59:02;;;;;;;9.53;5.17;;;23.90;99.90;;;;;;4867764;29;20305;-56
2022/08/25 07:01:30;;;;;;;6.47;4.77;;;23.90;99.90;;;;;;4866991;29;20329;-57
2022/08/25 07:04:02;;;;;;;7.23;5.30;;;24.10;99.90;;;;;;4868683;29;20713;-55
2022/08/25 07:06:35;;;;;;;10.87;5.43;;;24.20;99.90;;;;;;4868377;29;21299;-56
2022/08/25 07:09:05;;;;;;;8.03;5.10;;;24.40;99.90;;;;;;4866530;29;20261;-57
2022/08/25 07:11:33;;;;;;;7.33;4.97;;;24.60;99.90;;;;;;4868776;29;20280;-57
2022/08/25 07:14:02;;;;;;;5.93;5.33;;;24.70;99.90;;;;;;4867152;29;20248;-57
2022/08/25 07:16:31;;;;;;;5.43;4.90;;;24.80;99.90;;;;;;4867254;29;21067;-57
2022/08/25 07:19:00;;;;;;;7.13;5.10;;;24.90;99.90;;;;;;4866694;29;21244;-56
2022/08/25 07:21:30;;;;;;;5.33;4.80;;;25.00;99.90;;;;;;4868005;29;20253;-57
2022/08/25 07:24:06;;;;;;;6.43;5.33;;;25.10;99.90;;;;;;4867414;29;20241;-57
2022/08/25 07:26:35;;;;;;;6.40;4.90;;;25.00;99.90;;;;;;4868811;29;20241;-58
2022/08/25 07:29:09;;;;;;;7.30;4.40;;;25.20;99.90;;;;;;4867500;29;21364;-57
2022/08/25 07:31:37;;;;;;;7.13;4.50;;;25.50;99.90;;;;;;4867242;29;20259;-57
2022/08/25 07:36:53;;;;;;;5.87;4.70;;;25.70;99.90;;;;;;4878848;29;20715;-57
2022/08/25 07:39:24;;;;;;;7.87;4.70;;;25.90;99.90;;;;;;4852843;29;20247;-57
2022/08/25 07:41:53;;;;;;;6.93;4.70;;;26.20;99.90;;;;;;4874773;29;20330;-57
2022/08/25 07:44:23;;;;;;;6.93;4.77;;;26.40;99.90;;;;;;4865913;29;20240;-56
2022/08/25 07:46:51;;;;;;;9.23;4.70;;;26.40;99.90;;;;;;4866933;29;20582;-57
2022/08/25 07:49:21;;;;;;;6.97;4.83;;;26.50;99.90;;;;;;4867306;29;20304;-57
2022/08/25 07:51:51;;;;;;;6.70;4.57;;;26.50;99.90;;;;;;4872842;29;20284;-57
2022/08/25 07:54:35;;;;;;;7.77;5.20;;;26.50;99.90;;;;;;4869134;29;20779;-58
2022/08/25 07:57:07;;;;;;;6.77;4.63;;;26.40;99.90;;;;;;4867764;29;20260;-57
2022/08/25 07:59:38;;;;;;;7.20;4.73;;;26.30;99.90;;;;;;4866576;29;20330;-57
2022/08/25 08:02:09;;;;;;;8.47;4.10;;;26.40;99.90;;;;;;4867201;29;20247;-57
2022/08/25 08:04:47;;;;;;;6.07;5.30;;;26.50;99.90;;;;;;4868719;29;20262;-57
2022/08/25 08:07:17;;;;;;;6.40;5.53;;;26.70;99.90;;;;;;4868200;29;20234;-58
2022/08/25 08:09:47;;;;;;;6.40;4.80;;;26.80;99.90;;;;;;4872064;29;20764;-57
2022/08/25 08:12:23;;;;;;;6.30;5.00;;;26.90;99.90;;;;;;4867249;29;20249;-58
2022/08/25 08:14:52;;;;;;;6.97;4.80;;;27.00;99.90;;;;;;4867040;29;20239;-57
2022/08/25 08:17:21;;;;;;;7.60;5.87;;;27.00;99.90;;;;;;4867288;29;20236;-56
2022/08/25 08:19:49;;;;;;;7.43;5.87;;;27.10;99.90;;;;;;4865705;29;20750;-56
2022/08/25 08:22:17;;;;;;;9.73;6.40;;;27.20;99.90;;;;;;4867482;29;20242;-57
2022/08/25 08:24:48;;;;;;;9.30;6.50;;;27.30;99.90;;;;;;4855264;29;20248;-55
2022/08/25 08:27:24;;;;;;;12.73;8.33;;;27.40;99.90;;;;;;4862989;29;20236;-57
2022/08/25 08:29:53;;;;;;;9.23;8.13;;;27.10;99.90;;;;;;4865742;29;20236;-57
2022/08/25 08:32:21;;;;;;;11.03;8.67;;;27.30;99.90;;;;;;4865994;29;20239;-56
2022/08/25 08:34:58;;;;;;;9.67;8.67;;;27.30;99.90;;;;;;4866580;29;20237;-58
2022/08/25 08:37:26;;;;;;;10.03;8.93;;;27.30;99.90;;;;;;4875998;29;20604;-56
2022/08/25 08:39:56;;;;;;;13.27;9.40;;;27.30;99.90;;;;;;4872989;29;20284;-57
2022/08/25 08:42:45;;;;;;;38.63;11.97;;;27.50;99.90;;;;;;4876560;29;20242;-56
2022/08/25 08:45:32;;;;;;;12.30;10.07;;;27.60;99.90;;;;;;4867089;29;20298;-56
2022/08/25 08:48:48;;;;;;;13.27;9.77;;;27.50;99.90;;;;;;4858230;29;20235;-56
2022/08/25 08:51:23;;;;;;;12.30;10.57;;;27.50;99.90;;;;;;4864560;29;20545;-55
2022/08/25 08:53:55;;;;;;;12.70;10.27;;;27.50;99.90;;;;;;4875245;29;20228;-55
2022/08/25 08:56:30;;;;;;;11.00;9.57;;;27.60;99.90;;;;;;4879226;29;20340;-52
2022/08/25 08:59:03;;;;;;;10.63;9.53;;;28.00;99.90;;;;;;4872209;29;20252;-54
2022/08/25 09:01:47;;;;;;;12.37;11.17;;;28.10;99.90;;;;;;4872198;29;21441;-55
2022/08/25 09:04:27;;;;;;;10.33;9.33;;;27.70;99.90;;;;;;4875299;29;20901;-55
2022/08/25 09:06:56;;;;;;;11.87;9.23;;;27.80;99.90;;;;;;4876492;29;20239;-55
2022/08/25 09:09:28;;;;;;;12.93;10.27;;;27.90;99.90;;;;;;4872396;29;20321;-55
2022/08/25 09:12:09;;;;;;;11.83;9.83;;;28.00;99.90;;;;;;4876884;29;20251;-53
2022/08/25 09:14:51;;;;;;;12.53;9.57;;;28.10;99.90;;;;;;4872251;29;20728;-57
2022/08/25 09:17:35;;;;;;;10.97;9.03;;;28.10;99.90;;;;;;4866912;29;20252;-56
2022/08/25 09:20:17;;;;;;;10.03;9.00;;;28.10;99.90;;;;;;4861096;29;20793;-56
2022/08/25 09:22:55;;;;;;;11.03;9.83;;;28.40;99.90;;;;;;4859195;29;20233;-56
2022/08/25 09:25:29;;;;;;;10.30;9.27;;;28.50;99.90;;;;;;4858608;29;20531;-56
2022/08/25 09:28:23;;;;;;;11.03;9.43;;;28.60;99.90;;;;;;4853789;29;20508;-57
2022/08/25 09:30:57;;;;;;;10.93;9.77;;;28.40;99.90;;;;;;4856577;29;20714;-55
2022/08/25 09:33:28;;;;;;;10.37;9.27;;;28.50;99.90;;;;;;4855530;29;20646;-55
2022/08/25 09:35:56;;;;;;;10.17;9.17;;;28.40;99.90;;;;;;4856506;29;20237;-53
2022/08/25 09:38:26;;;;;;;14.93;9.67;;;28.40;99.90;;;;;;4851413;29;20732;-55
2022/08/25 09:40:57;;;;;;;13.30;10.23;;;28.40;99.90;;;;;;4855828;29;20239;-56
2022/08/25 09:43:32;;;;;;;10.10;9.03;;;28.40;99.90;;;;;;4849817;29;20696;-55
2022/08/25 09:46:09;;;;;;;14.33;10.83;;;28.60;99.90;;;;;;4858668;29;20663;-56
2022/08/25 09:48:44;;;;;;;11.43;10.13;;;28.60;99.90;;;;;;4860712;29;20637;-54
2022/08/25 09:51:23;;;;;;;11.67;10.07;;;28.70;99.90;;;;;;4860801;29;20325;-55
2022/08/25 09:53:55;;;;;;;11.00;9.83;;;28.80;99.90;;;;;;4857883;29;20339;-55
2022/08/25 09:56:25;;;;;;;10.93;9.63;;;28.70;99.90;;;;;;4856591;29;20294;-55
2022/08/25 09:58:59;;;;;;;11.23;9.80;;;28.20;99.90;;;;;;4855776;29;20226;-55
2022/08/25 10:01:31;;;;;;;14.07;9.63;;;28.10;99.90;;;;;;4856097;29;20238;-55
2022/08/25 10:04:04;;;;;;;13.47;9.83;;;28.30;99.90;;;;;;4856319;29;20234;-55
2022/08/25 10:06:43;;;;;;;11.03;9.93;;;28.40;99.90;;;;;;4860901;29;20762;-55
2022/08/25 10:09:23;;;;;;;14.73;10.63;;;28.30;99.90;;;;;;4859063;29;20289;-55
2022/08/25 10:11:52;;;;;;;11.63;10.03;;;28.30;99.90;;;;;;4859816;29;20242;-54
2022/08/25 10:14:34;;;;;;;11.03;9.90;;;28.40;99.90;;;;;;4856398;29;20843;-55
2022/08/25 10:17:23;;;;;;;11.83;10.50;;;28.90;99.90;;;;;;4855873;29;20246;-55
2022/08/25 10:20:12;;;;;;;12.10;10.20;;;29.00;99.90;;;;;;4855214;29;20336;-55
2022/08/25 10:22:41;;;;;;;11.83;10.63;;;29.00;99.90;;;;;;4852075;29;20246;-55
2022/08/25 10:25:12;;;;;;;11.53;10.33;;;28.80;99.90;;;;;;4849432;29;20364;-55
2022/08/25 10:27:50;;;;;;;13.70;10.80;;;29.00;99.90;;;;;;4849652;29;20585;-56
2022/08/25 10:30:23;;;;;;;12.87;10.30;;;29.10;99.90;;;;;;4849147;29;20238;-56
2022/08/25 10:33:08;;;;;;;10.53;9.47;;;29.00;99.90;;;;;;4850302;29;20238;-53
2022/08/25 10:35:47;;;;;;;10.63;9.07;;;28.80;99.90;;;;;;4850372;29;20376;-55
2022/08/25 10:38:31;;;;;;;10.93;8.23;;;28.70;99.90;;;;;;4850730;29;20275;-56
2022/08/25 10:41:23;;;;;;;8.37;7.67;;;28.90;99.90;;;;;;4851345;29;20587;-54
2022/08/25 10:44:00;;;;;;;9.53;7.43;;;29.10;99.90;;;;;;4849207;29;20239;-55
2022/08/25 10:46:35;;;;;;;9.70;7.77;;;29.10;99.90;;;;;;4851024;29;20239;-54
2022/08/25 10:49:08;;;;;;;10.00;7.37;;;29.20;99.90;;;;;;4851731;29;20269;-55
2022/08/25 10:51:48;;;;;;;7.70;7.00;;;29.30;99.90;;;;;;4850712;29;21161;-55
2022/08/25 10:54:32;;;;;;;9.73;7.03;;;29.30;99.90;;;;;;4854611;29;20238;-53
2022/08/25 10:57:11;;;;;;;8.93;6.33;;;29.20;99.90;;;;;;4858441;29;20238;-54
2022/08/25 10:59:51;;;;;;;8.93;6.30;;;29.00;99.90;;;;;;4846901;29;20718;-55
2022/08/25 11:02:54;;;;;;;7.93;5.63;;;28.80;99.90;;;;;;4846754;29;20274;-54
2022/08/25 11:05:28;;;;;;;9.90;6.53;;;29.10;99.90;;;;;;4842997;29;20321;-55
2022/08/25 11:08:06;;;;;;;8.93;5.77;;;29.20;99.90;;;;;;4847610;29;20656;-55
2022/08/25 11:10:40;;;;;;;7.27;6.07;;;29.40;99.90;;;;;;4850033;29;20243;-56
2022/08/25 11:13:15;;;;;;;8.40;6.13;;;29.30;99.90;;;;;;4849421;29;20231;-55
2022/08/25 11:15:51;;;;;;;8.43;6.13;;;29.30;99.90;;;;;;4851105;29;20238;-56
2022/08/25 11:18:47;;;;;;;8.20;5.93;;;29.20;99.90;;;;;;4851890;29;20239;-55
2022/08/25 11:21:23;;;;;;;6.20;5.60;;;29.50;99.90;;;;;;4847997;29;20788;-56
2022/08/25 11:23:58;;;;;;;11.00;5.67;;;29.50;99.90;;;;;;4851193;29;20872;-54
2022/08/25 11:26:33;;;;;;;5.87;5.17;;;29.40;99.90;;;;;;4851283;29;20237;-55
2022/08/25 11:29:10;;;;;;;6.87;5.10;;;29.50;99.90;;;;;;4849842;29;20234;-56
2022/08/25 11:31:42;;;;;;;7.47;5.80;;;29.30;99.90;;;;;;4849730;29;20834;-55
2022/08/25 11:34:17;;;;;;;6.00;5.20;;;29.50;99.90;;;;;;4853947;29;20262;-56
2022/08/25 11:36:52;;;;;;;6.47;5.00;;;29.00;99.90;;;;;;4851732;29;20334;-56
2022/08/25 11:39:36;;;;;;;8.60;5.70;;;29.20;99.90;;;;;;4847801;29;20325;-56
2022/08/25 11:42:18;;;;;;;7.53;5.67;;;29.40;99.90;;;;;;4850925;29;20266;-54
2022/08/25 11:45:00;;;;;;;7.93;5.40;;;29.80;99.90;;;;;;4851009;29;20722;-54
2022/08/25 11:47:51;;;;;;;7.13;5.50;;;29.80;99.90;;;;;;4855180;29;20252;-56
2022/08/25 11:50:31;;;;;;;6.80;5.87;;;29.90;99.90;;;;;;4864110;29;20324;-56
2022/08/25 11:53:21;;;;;;;9.10;5.83;;;30.00;99.90;;;;;;4856702;29;21295;-55
2022/08/25 11:55:57;;;;;;;7.97;6.03;;;29.90;99.90;;;;;;4848804;29;20249;-55
2022/08/25 11:58:41;;;;;;;8.93;6.17;;;29.10;99.90;;;;;;4852214;29;20269;-55
2022/08/25 12:01:32;;;;;;;7.97;5.60;;;29.10;99.90;;;;;;4854446;29;20266;-56
2022/08/25 12:04:16;;;;;;;10.33;6.63;;;29.20;99.90;;;;;;4851530;29;20239;-56
2022/08/25 12:07:24;;;;;;;10.70;6.40;;;28.90;99.90;;;;;;4850180;29;21208;-56
2022/08/25 12:10:20;;;;;;;7.43;6.50;;;28.80;99.90;;;;;;4841791;29;20262;-56
2022/08/25 12:13:21;;;;;;;7.87;6.53;;;28.90;99.90;;;;;;4848639;29;20231;-55
2022/08/25 12:16:01;;;;;;;9.73;6.63;;;28.90;99.90;;;;;;4832364;29;20247;-56
2022/08/25 12:18:45;;;;;;;7.97;6.60;;;28.70;99.90;;;;;;4846323;29;20242;-56
2022/08/25 12:21:33;;;;;;;8.60;6.90;;;28.80;99.90;;;;;;4845976;29;20243;-55
2022/08/25 12:24:13;;;;;;;6.77;6.10;;;28.80;99.90;;;;;;4843879;29;20327;-56
2022/08/25 12:26:50;;;;;;;10.03;6.90;;;28.90;99.90;;;;;;4845562;29;20329;-56
2022/08/25 12:29:27;;;;;;;7.50;6.30;;;28.90;99.90;;;;;;4838663;29;20245;-54
2022/08/25 12:32:26;;;;;;;8.87;6.33;;;29.00;99.90;;;;;;4848018;29;20721;-55
2022/08/25 12:35:17;;;;;;;9.30;6.17;;;28.90;99.90;;;;;;4848237;29;20234;-55
2022/08/25 12:37:58;;;;;;;10.63;6.60;;;28.70;99.90;;;;;;4847067;29;20243;-56
2022/08/25 12:40:31;;;;;;;7.87;5.93;;;28.60;99.90;;;;;;4847034;29;20721;-56
2022/08/25 12:43:07;;;;;;;8.83;6.47;;;28.70;99.90;;;;;;4847026;29;20238;-55
2022/08/25 12:45:39;;;;;;;8.60;6.20;;;28.50;99.90;;;;;;4847102;29;20235;-56
2022/08/25 12:48:43;;;;;;;10.23;6.33;;;28.50;99.90;;;;;;4857434;29;20249;-55
2022/08/25 12:51:18;;;;;;;8.70;5.60;;;28.50;99.90;;;;;;4861365;29;20234;-55
2022/08/25 12:53:52;;;;;;;6.90;6.07;;;28.40;99.90;;;;;;4858523;29;20275;-54
2022/08/25 12:56:31;;;;;;;6.37;5.77;;;28.50;99.90;;;;;;4856785;29;20313;-54
2022/08/25 12:59:17;;;;;;;10.43;6.20;;;28.50;99.90;;;;;;4849296;29;20289;-54
2022/08/25 13:02:21;;;;;;;12.53;6.20;;;28.50;99.90;;;;;;4856828;29;21340;-56
2022/08/25 13:05:10;;;;;;;8.13;5.60;;;28.60;99.90;;;;;;4827805;29;20329;-56
2022/08/25 13:07:57;;;;;;;7.07;5.73;;;28.70;99.90;;;;;;4860793;29;20237;-57
2022/08/25 13:10:45;;;;;;;9.10;5.90;;;28.70;99.90;;;;;;4854740;29;20307;-56
2022/08/25 13:13:24;;;;;;;7.87;5.90;;;28.70;99.90;;;;;;4852232;29;20248;-57
2022/08/25 13:16:00;;;;;;;8.43;5.40;;;28.80;99.90;;;;;;4848640;29;20333;-57
2022/08/25 13:18:31;;;;;;;13.30;6.13;;;28.90;99.90;;;;;;4849983;29;20246;-56
2022/08/25 13:21:08;;;;;;;10.43;5.40;;;28.60;99.90;;;;;;4850023;29;20875;-57
2022/08/25 13:23:40;;;;;;;8.57;5.43;;;28.60;99.90;;;;;;4849385;29;20286;-57
2022/08/25 13:26:12;;;;;;;5.50;5.00;;;28.40;99.90;;;;;;4850016;29;20306;-57
2022/08/25 13:28:44;;;;;;;8.67;5.30;;;28.40;99.90;;;;;;4848430;29;20279;-57
2022/08/25 13:31:21;;;;;;;7.93;5.40;;;28.60;99.90;;;;;;4857975;29;20238;-55
2022/08/25 13:33:54;;;;;;;7.27;5.10;;;28.30;99.90;;;;;;4864309;29;20226;-57
2022/08/25 13:39:22;;;;;;;5.73;5.13;;;28.20;99.90;;;;;;4852962;29;20241;-57